createdAt,value
2023-04-11T00:02:00.227Z,1.60
2023-04-11T00:04:28.073Z,1.57
2023-04-11T00:06:55.615Z,1.90
2023-04-11T00:09:23.255Z,2.00
2023-04-11T00:11:50.728Z,2.17
2023-04-11T00:14:18.302Z,1.50
2023-04-11T00:16:45.822Z,1.97
2023-04-11T00:19:13.401Z,2.30
2023-04-11T00:21:40.906Z,1.90
2023-04-11T00:24:08.863Z,1.60
2023-04-11T00:26:36.370Z,1.93
2023-04-11T00:29:05.081Z,1.80
2023-04-11T00:31:32.905Z,2.17
2023-04-11T00:34:00.441Z,2.10
2023-04-11T00:36:28.004Z,2.57
2023-04-11T00:38:55.798Z,2.97
2023-04-11T00:41:23.518Z,2.33
2023-04-11T00:43:51.190Z,2.43
2023-04-11T00:46:18.950Z,2.63
2023-04-11T00:48:46.556Z,2.53
2023-04-11T00:51:15.316Z,2.57
2023-04-11T00:53:43.284Z,2.37
2023-04-11T00:56:10.853Z,2.53
2023-04-11T00:58:39.132Z,2.37
2023-04-11T01:01:07.474Z,2.93
2023-04-11T01:03:35.671Z,2.47
2023-04-11T01:06:03.896Z,2.60
2023-04-11T01:08:31.502Z,2.80
2023-04-11T01:10:59.008Z,2.80
2023-04-11T01:13:26.598Z,2.60
2023-04-11T01:15:54.139Z,2.50
2023-04-11T01:18:21.725Z,3.33
2023-04-11T01:20:49.298Z,2.57
2023-04-11T01:23:21.606Z,2.63
2023-04-11T01:25:49.410Z,2.37
2023-04-11T01:28:17.028Z,2.67
2023-04-11T01:30:44.615Z,2.80
2023-04-11T01:33:12.457Z,3.40
2023-04-11T01:35:40.272Z,3.13
2023-04-11T01:38:08.105Z,2.93
2023-04-11T01:40:35.991Z,3.33
2023-04-11T01:43:03.604Z,4.73
2023-04-11T01:45:32.057Z,3.87
2023-04-11T01:47:59.758Z,3.67
2023-04-11T01:50:27.563Z,3.17
2023-04-11T01:52:55.232Z,2.60
2023-04-11T01:55:22.808Z,3.10
2023-04-11T01:57:50.350Z,3.57
2023-04-11T02:00:18.096Z,3.40
2023-04-11T02:02:45.695Z,3.03
2023-04-11T02:05:13.434Z,3.07
2023-04-11T02:07:40.915Z,4.03
2023-04-11T02:10:08.746Z,3.73
2023-04-11T02:12:36.240Z,3.33
2023-04-11T02:15:03.889Z,2.93
2023-04-11T02:17:31.486Z,3.60
2023-04-11T02:19:59.097Z,3.53
2023-04-11T02:22:26.640Z,4.03
2023-04-11T02:24:54.224Z,4.10
2023-04-11T02:27:21.717Z,4.13
2023-04-11T02:29:49.340Z,4.53
2023-04-11T02:32:16.932Z,4.03
2023-04-11T02:34:44.760Z,3.70
2023-04-11T02:37:12.290Z,4.00
2023-04-11T02:39:39.837Z,4.37
2023-04-11T02:42:07.326Z,3.43
2023-04-11T02:44:36.792Z,3.10
2023-04-11T02:47:04.465Z,4.27
2023-04-11T02:49:31.998Z,4.47
2023-04-11T02:52:01.212Z,3.93
2023-04-11T02:54:28.748Z,3.77
2023-04-11T02:56:56.304Z,4.57
2023-04-11T02:59:23.864Z,4.60
2023-04-11T03:01:51.540Z,4.63
2023-04-11T03:04:19.118Z,4.10
2023-04-11T03:06:46.640Z,3.80
2023-04-11T03:09:14.153Z,4.33
2023-04-11T03:11:41.717Z,4.37
2023-04-11T03:14:09.258Z,3.73
2023-04-11T03:16:36.880Z,4.43
2023-04-11T03:19:04.389Z,4.80
2023-04-11T03:21:31.929Z,3.87
2023-04-11T03:23:59.476Z,3.87
2023-04-11T03:26:27.105Z,4.30
2023-04-11T03:28:55.157Z,4.90
2023-04-11T03:31:23.016Z,4.17
2023-04-11T03:33:50.581Z,4.50
2023-04-11T03:36:18.186Z,5.23
2023-04-11T03:38:45.692Z,4.63
2023-04-11T03:41:13.324Z,4.43
2023-04-11T03:43:40.849Z,4.90
2023-04-11T03:46:08.430Z,5.40
2023-04-11T03:48:35.978Z,5.20
2023-04-11T03:51:03.888Z,5.17
2023-04-11T03:53:31.986Z,5.03
2023-04-11T03:55:59.654Z,4.57
2023-04-11T03:58:27.188Z,5.83
2023-04-11T04:00:54.703Z,4.53
2023-04-11T04:03:22.312Z,4.00
2023-04-11T04:05:50.033Z,3.67
2023-04-11T04:08:17.548Z,3.90
2023-04-11T04:10:45.158Z,4.17
2023-04-11T04:13:12.662Z,3.90
2023-04-11T04:15:40.238Z,4.10
2023-04-11T04:18:07.834Z,3.50
2023-04-11T04:20:35.399Z,3.90
2023-04-11T04:23:02.908Z,3.90
2023-04-11T04:25:30.527Z,4.13
2023-04-11T04:27:58.273Z,3.13
2023-04-11T04:30:25.911Z,3.63
2023-04-11T04:32:53.472Z,3.57
2023-04-11T04:35:21.227Z,4.83
2023-04-11T04:37:48.711Z,3.50
2023-04-11T04:40:16.304Z,4.13
2023-04-11T04:42:43.807Z,3.23
2023-04-11T04:45:11.488Z,4.37
2023-04-11T04:47:39.022Z,3.60
2023-04-11T04:50:06.945Z,3.50
2023-04-11T04:52:34.488Z,4.37
2023-04-11T04:55:02.076Z,3.03
2023-04-11T04:57:30.101Z,3.80
2023-04-11T04:59:57.884Z,3.30
2023-04-11T05:02:25.635Z,3.40
2023-04-11T05:04:54.719Z,3.47
2023-04-11T05:07:22.401Z,3.80
2023-04-11T05:09:50.016Z,3.17
2023-04-11T05:12:17.716Z,4.47
2023-04-11T05:14:45.452Z,4.00
2023-04-11T05:17:12.967Z,4.13
2023-04-11T05:19:40.512Z,3.73
2023-04-11T05:22:08.090Z,3.47
2023-04-11T05:24:35.703Z,3.80
2023-04-11T05:27:03.294Z,3.53
2023-04-11T05:29:31.159Z,4.47
2023-04-11T05:31:58.673Z,4.77
2023-04-11T05:34:26.184Z,5.33
2023-04-11T05:36:53.712Z,4.10
2023-04-11T05:39:22.474Z,4.23
2023-04-11T05:41:50.033Z,3.83
2023-04-11T05:44:17.564Z,4.07
2023-04-11T05:46:45.090Z,4.77
2023-04-11T05:49:15.662Z,3.80
2023-04-11T05:51:43.232Z,4.13
2023-04-11T05:54:10.780Z,4.97
2023-04-11T05:56:38.466Z,4.23
2023-04-11T05:59:06.497Z,3.53
2023-04-11T06:01:36.225Z,4.10
2023-04-11T06:04:04.501Z,3.97
2023-04-11T06:06:32.238Z,4.60
2023-04-11T06:09:00.240Z,4.17
2023-04-11T06:11:27.824Z,3.70
2023-04-11T06:13:55.489Z,4.63
2023-04-11T06:16:26.293Z,3.70
2023-04-11T06:18:53.995Z,3.40
2023-04-11T06:21:21.451Z,3.37
2023-04-11T06:23:48.998Z,4.20
2023-04-11T06:26:16.500Z,3.67
2023-04-11T06:28:44.144Z,4.03
2023-04-11T06:31:11.687Z,3.93
2023-04-11T06:33:39.274Z,4.30
2023-04-11T06:36:07.012Z,3.93
2023-04-11T06:38:34.545Z,4.77
2023-04-11T06:41:02.071Z,3.70
2023-04-11T06:43:29.698Z,3.53
2023-04-11T06:45:57.174Z,3.60
2023-04-11T06:48:24.717Z,4.33
2023-04-11T06:50:52.173Z,4.60
2023-04-11T06:53:19.754Z,4.50
2023-04-11T06:55:50.474Z,4.10
2023-04-11T06:58:17.985Z,3.87
2023-04-11T07:00:45.544Z,3.80
2023-04-11T07:03:13.221Z,3.37
2023-04-11T07:05:40.784Z,3.90
2023-04-11T07:08:08.333Z,3.53
2023-04-11T07:10:35.930Z,3.27
2023-04-11T07:13:03.563Z,3.23
2023-04-11T07:15:31.108Z,3.00
2023-04-11T07:17:58.715Z,3.37
2023-04-11T07:20:26.308Z,3.37
2023-04-11T07:22:53.918Z,3.00
2023-04-11T07:25:21.491Z,3.33
2023-04-11T07:27:50.646Z,3.27
2023-04-11T07:30:18.204Z,3.43
2023-04-11T07:32:45.893Z,3.63
2023-04-11T07:35:13.492Z,3.27
2023-04-11T07:37:41.024Z,3.37
2023-04-11T07:40:08.890Z,3.57
2023-04-11T07:42:36.458Z,2.90
2023-04-11T07:45:04.149Z,3.10
2023-04-11T07:47:31.724Z,2.97
2023-04-11T07:49:59.327Z,3.33
2023-04-11T07:52:26.892Z,3.27
2023-04-11T07:54:54.380Z,2.77
2023-04-11T07:57:22.033Z,2.90
2023-04-11T07:59:49.529Z,3.23
2023-04-11T08:02:17.402Z,3.00
2023-04-11T08:04:45.177Z,2.80
2023-04-11T08:07:13.086Z,2.97
2023-04-11T08:09:40.655Z,2.70
2023-04-11T08:12:08.248Z,2.60
2023-04-11T08:14:36.224Z,2.53
2023-04-11T08:17:06.640Z,3.20
2023-04-11T08:19:37.690Z,2.27
2023-04-11T08:22:05.234Z,2.50
2023-04-11T08:24:32.802Z,1.90
2023-04-11T08:27:00.351Z,1.90
2023-04-11T08:29:27.900Z,2.23
2023-04-11T08:31:55.398Z,1.83
2023-04-11T08:34:23.007Z,2.77
2023-04-11T08:36:50.677Z,2.07
2023-04-11T08:39:18.261Z,2.37
2023-04-11T08:41:45.871Z,2.27
2023-04-11T08:44:13.536Z,2.20
2023-04-11T08:46:42.183Z,2.10
2023-04-11T08:49:09.805Z,2.50
2023-04-11T08:51:37.517Z,2.13
2023-04-11T08:54:05.957Z,2.07
2023-04-11T08:56:34.576Z,2.10
2023-04-11T08:59:02.632Z,2.63
2023-04-11T09:01:30.268Z,2.53
2023-04-11T09:03:58.940Z,2.07
2023-04-11T09:06:27.758Z,1.77
2023-04-11T09:08:56.228Z,2.17
2023-04-11T09:11:23.731Z,2.33
2023-04-11T09:14:05.835Z,2.30
2023-04-11T09:16:33.558Z,1.93
2023-04-11T09:19:01.116Z,2.13
2023-04-11T09:21:28.703Z,1.90
2023-04-11T09:24:28.557Z,1.60
2023-04-11T09:27:15.637Z,2.23
2023-04-11T09:29:46.898Z,2.00
2023-04-11T09:32:26.641Z,1.90
2023-04-11T09:35:07.795Z,2.17
2023-04-11T09:37:45.332Z,1.77
2023-04-11T09:40:13.488Z,1.93
2023-04-11T09:42:41.473Z,2.23
2023-04-11T09:45:19.050Z,3.00
2023-04-11T09:47:47.181Z,2.27
2023-04-11T09:50:14.962Z,2.03
2023-04-11T09:52:43.400Z,2.60
2023-04-11T09:55:11.692Z,2.30
2023-04-11T09:57:43.274Z,2.37
2023-04-11T10:00:11.047Z,2.43
2023-04-11T10:02:38.700Z,2.90
2023-04-11T10:05:06.955Z,2.27
2023-04-11T10:07:35.885Z,2.73
2023-04-11T10:10:03.688Z,2.60
2023-04-11T10:12:34.166Z,2.77
2023-04-11T10:15:08.054Z,2.70
2023-04-11T10:17:36.405Z,2.80
2023-04-11T10:20:24.005Z,3.10
2023-04-11T10:22:51.505Z,2.97
2023-04-11T10:25:22.356Z,2.80
2023-04-11T10:27:51.232Z,2.93
2023-04-11T10:30:18.732Z,2.57
2023-04-11T10:33:05.243Z,2.63
2023-04-11T10:35:32.835Z,2.97
2023-04-11T10:38:00.430Z,2.30
2023-04-11T10:40:28.056Z,2.40
2023-04-11T10:42:55.608Z,2.17
2023-04-11T10:45:29.989Z,2.53
2023-04-11T10:47:57.631Z,2.70
2023-04-11T10:50:28.265Z,2.50
2023-04-11T10:52:59.745Z,2.50
2023-04-11T10:55:28.210Z,2.57
2023-04-11T10:58:31.135Z,2.37
2023-04-11T11:01:01.261Z,2.80
2023-04-11T11:03:30.972Z,2.23
2023-04-11T11:06:00.650Z,2.60
2023-04-11T11:08:32.370Z,2.57
2023-04-11T11:11:00.869Z,2.30
2023-04-11T11:13:41.620Z,2.53
2023-04-11T11:16:09.864Z,2.80
2023-04-11T11:18:37.711Z,2.67
2023-04-11T11:21:07.403Z,2.53
2023-04-11T11:23:36.923Z,2.70
2023-04-11T11:26:04.484Z,2.70
2023-04-11T11:28:32.068Z,2.30
2023-04-11T11:30:59.547Z,2.53
2023-04-11T11:33:27.126Z,2.67
2023-04-11T11:35:56.652Z,2.40
2023-04-11T11:38:26.439Z,2.57
2023-04-11T11:40:54.139Z,2.43
2023-04-11T11:43:21.980Z,2.47
2023-04-11T11:46:08.461Z,2.30
2023-04-11T11:48:36.693Z,2.63
2023-04-11T11:51:04.310Z,2.40
2023-04-11T11:53:34.939Z,2.90
2023-04-11T11:56:12.542Z,2.77
2023-04-11T11:58:43.623Z,2.70
2023-04-11T12:03:41.814Z,2.07
2023-04-11T12:06:10.328Z,2.63
2023-04-11T12:08:41.128Z,2.23
2023-04-11T12:11:11.329Z,1.97
2023-04-11T12:13:38.887Z,2.03
2023-04-11T12:16:06.782Z,1.90
2023-04-11T12:18:34.444Z,1.83
2023-04-11T12:21:02.268Z,2.30
2023-04-11T12:23:29.929Z,1.97
2023-04-11T12:25:57.649Z,2.03
2023-04-11T12:28:25.242Z,2.30
2023-04-11T12:30:52.778Z,2.23
2023-04-11T12:33:20.464Z,2.30
2023-04-11T12:35:48.110Z,2.03
2023-04-11T12:38:17.748Z,2.10
2023-04-11T12:40:46.299Z,2.10
2023-04-11T12:43:13.904Z,2.30
2023-04-11T12:45:41.470Z,2.80
2023-04-11T12:48:09.128Z,2.33
2023-04-11T12:50:36.712Z,2.50
2023-04-11T12:53:04.211Z,2.17
2023-04-11T12:55:31.818Z,2.20
2023-04-11T12:57:59.351Z,2.03
2023-04-11T13:00:27.076Z,1.90
2023-04-11T13:02:54.735Z,1.90
2023-04-11T13:05:22.679Z,1.93
2023-04-11T13:07:50.218Z,2.13
2023-04-11T13:10:17.810Z,2.00
2023-04-11T13:12:45.995Z,1.90
2023-04-11T13:15:14.339Z,2.30
2023-04-11T13:17:41.925Z,2.27
2023-04-11T13:20:10.695Z,2.00
2023-04-11T13:22:39.055Z,1.90
2023-04-11T13:25:06.907Z,1.90
2023-04-11T13:27:34.666Z,2.03
2023-04-11T13:30:02.388Z,2.17
2023-04-11T13:32:30.024Z,1.60
2023-04-11T13:34:57.687Z,1.90
2023-04-11T13:37:25.288Z,1.80
2023-04-11T13:39:52.894Z,1.50
2023-04-11T13:42:20.406Z,1.60
2023-04-11T13:44:48.010Z,1.60
2023-04-11T13:47:15.540Z,1.80
2023-04-11T13:49:43.163Z,1.20
2023-04-11T13:52:10.717Z,1.50
2023-04-11T13:54:38.254Z,1.40
2023-04-11T13:57:05.866Z,1.57
2023-04-11T13:59:33.389Z,1.37
2023-04-11T14:02:00.985Z,1.60
2023-04-11T14:04:28.722Z,1.70
2023-04-11T14:06:56.297Z,1.60
2023-04-11T14:09:23.889Z,1.60
2023-04-11T14:11:51.479Z,1.37
2023-04-11T14:14:19.044Z,1.50
2023-04-11T14:16:46.692Z,1.70
2023-04-11T14:19:14.380Z,1.70
2023-04-11T14:21:41.926Z,1.40
2023-04-11T14:24:09.724Z,1.73
2023-04-11T14:26:37.271Z,1.73
2023-04-11T14:29:04.917Z,1.57
2023-04-11T14:31:32.726Z,1.23
2023-04-11T14:34:00.511Z,1.80
2023-04-11T14:36:28.591Z,1.47
2023-04-11T14:38:57.378Z,1.80
2023-04-11T14:41:24.922Z,1.67
2023-04-11T14:43:52.588Z,1.40
2023-04-11T14:46:20.137Z,1.60
2023-04-11T14:48:47.851Z,1.37
2023-04-11T14:51:15.405Z,1.67
2023-04-11T14:53:43.003Z,1.80
2023-04-11T14:56:10.616Z,1.30
2023-04-11T14:58:38.295Z,1.67
2023-04-11T15:01:05.849Z,1.70
2023-04-11T15:03:33.730Z,1.80
2023-04-11T15:06:01.487Z,1.90
2023-04-11T15:08:29.093Z,1.93
2023-04-11T15:10:56.730Z,1.63
2023-04-11T15:13:24.397Z,1.73
2023-04-11T15:15:51.967Z,2.00
2023-04-11T15:18:22.761Z,1.88
2023-04-11T15:20:50.728Z,2.00
2023-04-11T15:23:18.892Z,1.70
2023-04-11T15:25:56.323Z,1.73
2023-04-11T15:28:24.879Z,1.80
2023-04-11T15:30:53.299Z,2.30
2023-04-11T15:33:21.349Z,1.97
2023-04-11T15:35:48.954Z,2.00
2023-04-11T15:38:16.858Z,2.03
2023-04-11T15:40:44.450Z,2.03
2023-04-11T15:43:12.059Z,2.10
2023-04-11T15:45:39.718Z,2.07
2023-04-11T15:48:07.350Z,1.53
2023-04-11T15:50:34.926Z,1.90
2023-04-11T15:53:02.457Z,1.53
2023-04-11T15:55:30.034Z,1.60
2023-04-11T15:57:57.647Z,1.57
2023-04-11T16:00:25.269Z,1.50
2023-04-11T16:02:52.986Z,1.20
2023-04-11T16:05:21.021Z,1.60
2023-04-11T16:07:48.776Z,1.43
2023-04-11T16:10:16.381Z,1.93
2023-04-11T16:12:43.947Z,1.80
2023-04-11T16:15:11.487Z,1.60
2023-04-11T16:17:39.115Z,1.87
2023-04-11T16:20:07.090Z,1.77
2023-04-11T16:22:35.300Z,2.10
2023-04-11T16:25:06.642Z,1.87
2023-04-11T16:27:34.302Z,1.77
2023-04-11T16:30:01.985Z,1.63
2023-04-11T16:32:29.665Z,2.23
2023-04-11T16:34:57.299Z,1.97
2023-04-11T16:37:25.169Z,1.90
2023-04-11T16:39:52.699Z,1.87
2023-04-11T16:42:20.277Z,1.70
2023-04-11T16:44:47.885Z,1.80
2023-04-11T16:47:15.438Z,1.80
2023-04-11T16:49:44.399Z,1.90
2023-04-11T16:52:13.224Z,1.97
2023-04-11T16:54:40.754Z,2.40
2023-04-11T16:57:08.309Z,2.10
2023-04-11T16:59:35.810Z,2.20
2023-04-11T17:02:03.485Z,2.57
2023-04-11T17:04:31.280Z,1.90
2023-04-11T17:06:59.118Z,1.83
2023-04-11T17:09:26.660Z,1.83
2023-04-11T17:11:54.184Z,2.57
2023-04-11T17:14:21.732Z,3.00
2023-04-11T17:16:49.365Z,2.77
2023-04-11T17:19:16.965Z,2.07
2023-04-11T17:21:44.529Z,2.33
2023-04-11T17:24:12.102Z,2.03
2023-04-11T17:26:39.683Z,2.00
2023-04-11T17:29:07.286Z,1.57
2023-04-11T17:31:34.873Z,1.83
2023-04-11T17:34:02.357Z,1.87
2023-04-11T17:36:29.940Z,1.80
2023-04-11T17:38:57.516Z,1.87
2023-04-11T17:41:25.098Z,2.30
2023-04-11T17:43:55.359Z,1.57
2023-04-11T17:46:23.110Z,2.10
2023-04-11T17:48:50.713Z,1.90
2023-04-11T17:51:18.265Z,2.10
2023-04-11T17:53:45.827Z,2.73
2023-04-11T17:56:13.398Z,2.17
2023-04-11T17:58:41.049Z,1.50
2023-04-11T18:01:09.403Z,1.67
2023-04-11T18:03:37.369Z,1.77
2023-04-11T18:06:05.161Z,2.03
2023-04-11T18:08:49.246Z,1.70
2023-04-11T18:11:18.436Z,1.50
2023-04-11T18:13:48.297Z,1.53
2023-04-11T18:16:18.199Z,1.73
2023-04-11T18:18:46.597Z,1.60
2023-04-11T18:21:14.472Z,1.83
2023-04-11T18:23:42.086Z,1.50
2023-04-11T18:26:10.904Z,1.70
2023-04-11T18:28:38.394Z,1.67
2023-04-11T18:31:06.196Z,1.90
2023-04-11T18:33:35.780Z,1.43
2023-04-11T18:36:03.617Z,1.87
2023-04-11T18:38:31.208Z,1.83
2023-04-11T18:41:01.612Z,1.43
2023-04-11T18:43:32.991Z,1.93
2023-04-11T18:46:01.777Z,1.90
2023-04-11T18:48:29.506Z,2.17
2023-04-11T18:51:02.907Z,1.90
2023-04-11T18:53:30.572Z,2.33
2023-04-11T18:55:58.107Z,1.80
2023-04-11T18:58:26.748Z,2.07
2023-04-11T19:00:55.678Z,1.60
2023-04-11T19:03:23.513Z,2.20
2023-04-11T19:05:51.914Z,2.20
2023-04-11T19:08:19.541Z,2.87
2023-04-11T19:10:47.111Z,1.90
2023-04-11T19:13:14.603Z,1.53
2023-04-11T19:15:42.186Z,2.10
2023-04-11T19:18:09.722Z,1.87
2023-04-11T19:20:38.919Z,1.80
2023-04-11T19:23:09.489Z,2.13
2023-04-11T19:25:37.118Z,1.80
2023-04-11T19:28:04.654Z,2.20
2023-04-11T19:30:32.331Z,1.90
2023-04-11T19:32:59.867Z,2.00
2023-04-11T19:35:27.581Z,2.20
2023-04-11T19:37:55.096Z,2.00
2023-04-11T19:40:22.712Z,2.10
2023-04-11T19:42:50.382Z,2.47
2023-04-11T19:45:17.977Z,2.30
2023-04-11T19:47:45.586Z,2.20
2023-04-11T19:50:13.494Z,2.63
2023-04-11T19:52:41.559Z,2.57
2023-04-11T19:55:09.501Z,2.30
2023-04-11T19:57:37.064Z,2.53
2023-04-11T20:00:05.066Z,2.70
2023-04-11T20:02:32.688Z,2.70
2023-04-11T20:05:00.371Z,2.10
2023-04-11T20:07:27.949Z,2.87
2023-04-11T20:09:55.516Z,2.70
2023-04-11T20:12:23.183Z,2.40
2023-04-11T20:14:50.844Z,2.40
2023-04-11T20:17:18.417Z,2.20
2023-04-11T20:19:46.053Z,2.63
2023-04-11T20:22:13.670Z,2.60
2023-04-11T20:24:41.225Z,2.20
2023-04-11T20:27:08.785Z,2.33
2023-04-11T20:29:36.394Z,2.10
2023-04-11T20:32:04.026Z,2.53
2023-04-11T20:34:31.630Z,2.40
2023-04-11T20:36:59.485Z,2.43
2023-04-11T20:39:27.715Z,3.03
2023-04-11T20:41:55.300Z,2.77
2023-04-11T20:44:23.314Z,2.30
2023-04-11T20:46:51.061Z,2.27
2023-04-11T20:49:18.634Z,2.40
2023-04-11T20:51:51.840Z,2.10
2023-04-11T20:54:19.398Z,2.53
2023-04-11T20:56:46.960Z,2.50
2023-04-11T20:59:14.598Z,2.70
2023-04-11T21:01:42.276Z,2.57
2023-04-11T21:04:10.340Z,2.63
2023-04-11T21:06:37.949Z,2.47
2023-04-11T21:09:05.561Z,2.80
2023-04-11T21:11:33.439Z,2.70
2023-04-11T21:14:01.028Z,2.27
2023-04-11T21:16:28.632Z,2.37
2023-04-11T21:18:56.210Z,2.63
2023-04-11T21:21:23.778Z,2.30
2023-04-11T21:23:51.345Z,2.23
2023-04-11T21:26:19.089Z,2.50
2023-04-11T21:28:46.643Z,2.27
2023-04-11T21:31:14.157Z,2.70
2023-04-11T21:33:41.749Z,2.70
2023-04-11T21:36:09.653Z,2.43
2023-04-11T21:38:37.339Z,2.40
2023-04-11T21:41:04.838Z,2.13
2023-04-11T21:43:32.419Z,2.07
2023-04-11T21:46:00.158Z,1.80
2023-04-11T21:48:27.718Z,2.80
2023-04-11T21:50:55.243Z,2.13
2023-04-11T21:53:22.829Z,2.20
2023-04-11T21:55:50.434Z,2.33
2023-04-11T21:58:28.689Z,2.30
2023-04-11T22:00:57.642Z,2.27
2023-04-11T22:03:25.434Z,3.10
2023-04-11T22:05:53.333Z,2.30
2023-04-11T22:08:22.826Z,2.37
2023-04-11T22:10:50.485Z,3.10
2023-04-11T22:13:19.345Z,2.47
2023-04-11T22:15:47.290Z,2.57
2023-04-11T22:18:14.898Z,2.73
2023-04-11T22:20:43.840Z,2.13
2023-04-11T22:23:11.943Z,2.13
2023-04-11T22:25:41.365Z,2.60
2023-04-11T22:28:09.282Z,2.20
2023-04-11T22:30:36.774Z,2.60
2023-04-11T22:33:04.434Z,2.57
2023-04-11T22:35:33.227Z,2.40
2023-04-11T22:38:00.779Z,2.17
2023-04-11T22:40:28.345Z,2.50
2023-04-11T22:42:55.896Z,2.63
2023-04-11T22:45:24.076Z,2.53
2023-04-11T22:47:51.623Z,2.50
2023-04-11T22:50:19.280Z,2.70
2023-04-11T22:52:47.046Z,2.93
2023-04-11T22:55:14.783Z,2.90
2023-04-11T22:57:42.437Z,2.53
2023-04-11T23:00:10.243Z,2.90
2023-04-11T23:02:37.904Z,2.60
2023-04-11T23:05:05.711Z,3.00
2023-04-11T23:07:33.222Z,2.37
2023-04-11T23:10:01.178Z,2.50
2023-04-11T23:12:31.918Z,2.73
2023-04-11T23:14:59.461Z,3.00
2023-04-11T23:17:27.027Z,2.83
2023-04-11T23:19:54.584Z,2.63
2023-04-11T23:22:22.066Z,2.87
2023-04-11T23:24:49.595Z,2.60
2023-04-11T23:27:17.136Z,2.60
2023-04-11T23:29:48.836Z,2.57
2023-04-11T23:32:16.396Z,2.20
2023-04-11T23:34:43.862Z,2.30
2023-04-11T23:37:11.370Z,2.07
2023-04-11T23:39:38.841Z,1.83
2023-04-11T23:42:06.609Z,2.17
2023-04-11T23:44:34.097Z,1.80
2023-04-11T23:47:01.666Z,2.33
2023-04-11T23:49:29.244Z,2.23
2023-04-11T23:51:56.753Z,1.80
2023-04-11T23:54:26.317Z,1.70
2023-04-11T23:56:55.105Z,2.07
2023-04-11T23:59:22.599Z,2.10
